createdAt,value
2022-08-17T00:00:34.543Z,100438.94
2022-08-17T00:03:20.186Z,100436.44
2022-08-17T00:05:58.724Z,100434.28
2022-08-17T00:08:31.698Z,100425.81
2022-08-17T00:11:03.620Z,100427.44
2022-08-17T00:13:33.678Z,100432.59
2022-08-17T00:16:07.409Z,100436.22
2022-08-17T00:19:00.898Z,100433.50
2022-08-17T00:21:25.443Z,100430.75
2022-08-17T00:23:54.192Z,100429.13
2022-08-17T00:26:43.144Z,100429.63
2022-08-17T00:29:19.964Z,100430.47
2022-08-17T00:31:48.793Z,100431.28
2022-08-17T00:34:17.366Z,100424.47
2022-08-17T00:36:45.169Z,100422.53
2022-08-17T00:39:12.897Z,100426.38
2022-08-17T00:41:42.497Z,100415.50
2022-08-17T00:44:12.673Z,100419.88
2022-08-17T00:46:43.050Z,100420.66
2022-08-17T00:49:12.993Z,100422.31
2022-08-17T00:52:03.761Z,100420.03
2022-08-17T00:54:42.651Z,100419.75
2022-08-17T00:57:23.885Z,100421.91
2022-08-17T01:00:02.222Z,100420.50
2022-08-17T01:02:42.310Z,100423.22
2022-08-17T01:05:20.604Z,100423.44
2022-08-17T01:07:53.787Z,100424.28
2022-08-17T01:11:00.084Z,100429.72
2022-08-17T01:13:24.092Z,100430.53
2022-08-17T01:16:02.628Z,100423.16
2022-08-17T01:18:32.381Z,100429.19
2022-08-17T01:21:08.267Z,100435.75
2022-08-17T01:23:36.958Z,100436.03
2022-08-17T01:26:06.570Z,100446.09
2022-08-17T01:28:53.394Z,100440.69
2022-08-17T01:31:28.482Z,100443.63
2022-08-17T01:33:58.501Z,100438.94
2022-08-17T01:36:28.661Z,100444.59
2022-08-17T01:38:57.242Z,100440.72
2022-08-17T01:41:25.334Z,100440.78
2022-08-17T01:43:57.553Z,100436.13
2022-08-17T01:46:29.971Z,100434.78
2022-08-17T01:48:59.062Z,100443.75
2022-08-17T01:51:33.206Z,100440.25
2022-08-17T01:54:09.021Z,100443.22
2022-08-17T01:56:41.444Z,100435.03
2022-08-17T01:59:12.107Z,100440.34
2022-08-17T02:01:40.295Z,100432.91
2022-08-17T02:04:09.104Z,100426.34
2022-08-17T02:06:44.968Z,100429.94
2022-08-17T02:09:16.717Z,100426.31
2022-08-17T02:11:46.150Z,100421.66
2022-08-17T02:14:15.164Z,100419.53
2022-08-17T02:16:43.647Z,100418.72
2022-08-17T02:19:16.082Z,100425.03
2022-08-17T02:21:47.053Z,100423.06
2022-08-17T02:25:00.888Z,100430.38
2022-08-17T02:27:08.831Z,100435.59
2022-08-17T02:29:40.901Z,100427.25
2022-08-17T02:32:30.395Z,100430.19
2022-08-17T02:35:04.025Z,100436.75
2022-08-17T02:37:35.298Z,100431.66
2022-08-17T02:40:05.008Z,100436.41
2022-08-17T02:42:39.223Z,100434.56
2022-08-17T02:45:11.901Z,100433.34
2022-08-17T02:47:42.936Z,100428.22
2022-08-17T02:50:12.792Z,100435.19
2022-08-17T02:52:44.162Z,100426.69
2022-08-17T02:55:17.198Z,100430.47
2022-08-17T02:57:45.517Z,100427.16
2022-08-17T03:00:19.417Z,100419.59
2022-08-17T03:02:47.647Z,100416.38
2022-08-17T03:05:18.150Z,100428.81
2022-08-17T03:07:45.698Z,100432.94
2022-08-17T03:10:14.687Z,100439.00
2022-08-17T03:12:43.633Z,100428.06
2022-08-17T03:15:21.436Z,100432.19
2022-08-17T03:17:50.077Z,100424.31
2022-08-17T03:20:18.925Z,100423.75
2022-08-17T03:22:53.549Z,100417.28
2022-08-17T03:25:29.494Z,100414.16
2022-08-17T03:27:58.254Z,100403.50
2022-08-17T03:30:27.313Z,100405.97
2022-08-17T03:32:57.630Z,100402.69
2022-08-17T03:35:28.337Z,100395.34
2022-08-17T03:38:00.945Z,100387.94
2022-08-17T03:40:34.650Z,100381.97
2022-08-17T03:43:23.083Z,100388.22
2022-08-17T03:46:10.775Z,100390.72
2022-08-17T03:49:15.804Z,100396.97
2022-08-17T03:52:02.574Z,100404.00
2022-08-17T03:54:49.848Z,100412.03
2022-08-17T03:57:21.880Z,100415.91
2022-08-17T03:59:49.946Z,100414.28
2022-08-17T04:02:32.598Z,100423.63
2022-08-17T04:05:01.247Z,100426.34
2022-08-17T04:07:31.238Z,100421.44
2022-08-17T04:10:00.119Z,100428.28
2022-08-17T04:12:32.117Z,100424.94
2022-08-17T04:15:01.739Z,100422.97
2022-08-17T04:17:30.437Z,100418.81
2022-08-17T04:20:01.690Z,100417.13
2022-08-17T04:22:34.069Z,100410.13
2022-08-17T04:25:17.920Z,100400.88
2022-08-17T04:27:46.191Z,100405.78
2022-08-17T04:30:14.298Z,100403.38
2022-08-17T04:33:06.482Z,100409.66
2022-08-17T04:35:50.478Z,100412.09
2022-08-17T04:38:21.207Z,100406.72
2022-08-17T04:41:08.305Z,100412.16
2022-08-17T04:43:39.666Z,100414.63
2022-08-17T04:46:13.716Z,100414.38
2022-08-17T04:48:47.991Z,100426.13
2022-08-17T04:51:33.055Z,100421.47
2022-08-17T04:54:04.260Z,100425.25
2022-08-17T04:56:33.463Z,100423.13
2022-08-17T04:59:06.541Z,100434.28
2022-08-17T05:01:36.703Z,100428.78
2022-08-17T05:04:31.972Z,100430.66
2022-08-17T05:06:56.738Z,100428.75
2022-08-17T05:09:24.804Z,100431.50
2022-08-17T05:11:52.386Z,100430.72
2022-08-17T05:14:33.799Z,100425.78
2022-08-17T05:17:07.443Z,100431.78
2022-08-17T05:19:39.494Z,100433.22
2022-08-17T05:22:07.982Z,100439.44
2022-08-17T05:24:42.868Z,100435.97
2022-08-17T05:27:18.960Z,100439.78
2022-08-17T05:29:46.886Z,100440.56
2022-08-17T05:32:39.480Z,100437.59
2022-08-17T05:35:03.566Z,100440.25
2022-08-17T05:37:31.691Z,100441.06
2022-08-17T05:39:59.650Z,100444.59
2022-08-17T05:42:27.495Z,100451.69
2022-08-17T05:44:58.362Z,100451.94
2022-08-17T05:47:28.066Z,100440.78
2022-08-17T05:49:55.884Z,100440.78
2022-08-17T05:53:02.978Z,100436.72
2022-08-17T05:55:47.397Z,100442.09
2022-08-17T05:58:27.139Z,100433.38
2022-08-17T06:01:14.104Z,100440.94
2022-08-17T06:04:17.312Z,100444.22
2022-08-17T06:06:59.246Z,100441.16
2022-08-17T06:09:40.728Z,100447.19
2022-08-17T06:12:08.294Z,100440.59
2022-08-17T06:15:16.908Z,100431.31
2022-08-17T06:17:45.510Z,100430.53
2022-08-17T06:20:16.345Z,100439.03
2022-08-17T06:22:54.495Z,100421.19
2022-08-17T06:25:44.731Z,100412.44
2022-08-17T06:28:20.002Z,100407.25
2022-08-17T06:30:58.659Z,100415.66
2022-08-17T06:33:39.877Z,100421.31
2022-08-17T06:36:40.811Z,100426.16
2022-08-17T06:39:39.709Z,100426.44
2022-08-17T06:42:54.070Z,100425.31
2022-08-17T06:45:23.262Z,100428.81
2022-08-17T06:48:05.521Z,100423.34
2022-08-17T06:50:40.409Z,100409.91
2022-08-17T06:53:33.039Z,100418.53
2022-08-17T06:56:09.832Z,100421.03
2022-08-17T06:58:40.241Z,100415.50
2022-08-17T07:01:15.745Z,100419.56
2022-08-17T07:03:58.673Z,100411.59
2022-08-17T07:07:02.279Z,100418.88
2022-08-17T07:09:36.816Z,100418.97
2022-08-17T07:12:25.520Z,100420.75
2022-08-17T07:15:17.100Z,100436.19
2022-08-17T07:17:48.403Z,100437.81
2022-08-17T07:20:23.298Z,100433.34
2022-08-17T07:23:09.186Z,100436.81
2022-08-17T07:25:37.447Z,100442.91
2022-08-17T07:28:08.218Z,100447.84
2022-08-17T07:30:45.840Z,100458.22
2022-08-17T07:33:18.446Z,100461.25
2022-08-17T07:35:48.811Z,100466.88
2022-08-17T07:38:26.735Z,100459.13
2022-08-17T07:41:05.716Z,100448.16
2022-08-17T07:43:42.179Z,100458.59
2022-08-17T07:46:51.226Z,100439.41
2022-08-17T07:49:32.835Z,100449.81
2022-08-17T07:52:48.247Z,100441.22
2022-08-17T07:54:56.766Z,100438.13
2022-08-17T07:57:36.522Z,100452.41
2022-08-17T08:00:23.935Z,100441.50
2022-08-17T08:03:26.128Z,100454.78
2022-08-17T08:06:01.661Z,100445.81
2022-08-17T08:08:45.326Z,100438.81
2022-08-17T08:11:15.842Z,100463.72
2022-08-17T08:13:45.940Z,100447.13
2022-08-17T08:16:24.735Z,100411.94
2022-08-17T08:18:57.150Z,100422.16
2022-08-17T08:21:42.075Z,100433.19
2022-08-17T08:24:18.697Z,100429.44
2022-08-17T08:27:07.629Z,100430.94
2022-08-17T08:29:46.926Z,100442.56
2022-08-17T08:32:26.456Z,100444.78
2022-08-17T08:35:09.533Z,100451.44
2022-08-17T08:37:50.546Z,100445.34
2022-08-17T08:40:30.161Z,100435.97
2022-08-17T08:43:22.880Z,100451.66
2022-08-17T08:46:08.082Z,100458.91
2022-08-17T08:49:10.362Z,100461.69
2022-08-17T08:52:01.020Z,100467.53
2022-08-17T08:54:55.077Z,100488.91
2022-08-17T08:57:34.054Z,100492.31
2022-08-17T09:04:12.039Z,100456.41
2022-08-17T09:07:04.840Z,100439.28
2022-08-17T09:09:59.454Z,100423.53
2022-08-17T09:12:56.039Z,100420.63
2022-08-17T09:15:39.305Z,100437.53
2022-08-17T09:19:00.178Z,100460.19
2022-08-17T09:21:04.581Z,100452.56
2022-08-17T09:23:45.573Z,100432.69
2022-08-17T09:26:38.066Z,100431.16
2022-08-17T09:29:13.574Z,100457.53
2022-08-17T09:31:57.468Z,100524.03
2022-08-17T09:34:40.372Z,100545.00
2022-08-17T09:37:39.682Z,100528.44
2022-08-17T09:40:19.372Z,100492.09
2022-08-17T09:43:09.882Z,100497.69
2022-08-17T09:45:50.323Z,100488.34
2022-08-17T09:48:52.915Z,100475.22
2022-08-17T09:51:42.369Z,100460.25
2022-08-17T09:54:42.011Z,100467.28
2022-08-17T09:57:32.601Z,100492.06
2022-08-17T10:00:32.707Z,100480.38
2022-08-17T10:03:18.718Z,100466.31
2022-08-17T10:06:09.061Z,100461.34
2022-08-17T10:09:20.221Z,100476.03
2022-08-17T10:12:17.897Z,100484.41
2022-08-17T10:14:46.353Z,100495.31
2022-08-17T10:17:41.113Z,100504.91
2022-08-17T10:20:23.845Z,100488.84
2022-08-17T10:23:19.749Z,100472.34
2022-08-17T10:26:14.971Z,100466.66
2022-08-17T10:28:59.932Z,100479.03
2022-08-17T10:31:41.236Z,100489.00
2022-08-17T10:34:24.854Z,100482.38
2022-08-17T10:37:11.585Z,100469.66
2022-08-17T10:40:04.926Z,100444.56
2022-08-17T10:42:44.176Z,100436.56
2022-08-17T10:45:26.653Z,100441.44
2022-08-17T10:48:05.848Z,100433.28
2022-08-17T10:50:58.039Z,100436.28
2022-08-17T10:53:41.066Z,100437.75
2022-08-17T10:56:15.348Z,100438.31
2022-08-17T10:58:55.318Z,100421.09
2022-08-17T11:02:01.189Z,100421.09
2022-08-17T11:04:59.515Z,100413.09
2022-08-17T11:07:55.243Z,100397.59
2022-08-17T11:10:42.599Z,100401.28
2022-08-17T11:13:38.047Z,100404.38
2022-08-17T11:16:47.024Z,100412.28
2022-08-17T11:19:41.781Z,100393.34
2022-08-17T11:22:34.780Z,100380.72
2022-08-17T11:25:45.654Z,100365.75
2022-08-17T11:28:21.003Z,100365.03
2022-08-17T11:31:10.694Z,100371.78
2022-08-17T11:33:45.371Z,100380.78
2022-08-17T11:37:02.357Z,100388.91
2022-08-17T11:39:33.756Z,100388.16
2022-08-17T11:42:01.377Z,100381.94
2022-08-17T11:44:51.262Z,100382.09
2022-08-17T11:48:27.256Z,100386.66
2022-08-17T11:51:36.792Z,100390.72
2022-08-17T11:54:33.637Z,100389.06
2022-08-17T11:57:30.051Z,100383.00
2022-08-17T12:00:01.200Z,100377.41
2022-08-17T12:02:48.259Z,100392.91
2022-08-17T12:05:22.322Z,100385.47
2022-08-17T12:08:12.108Z,100390.00
2022-08-17T12:10:56.986Z,100388.88
2022-08-17T12:13:30.461Z,100394.03
2022-08-17T12:16:08.760Z,100390.66
2022-08-17T12:18:40.081Z,100389.28
2022-08-17T12:22:01.536Z,100389.63
2022-08-17T12:24:55.796Z,100382.69
2022-08-17T12:27:47.626Z,100393.34
2022-08-17T12:30:23.933Z,100393.53
2022-08-17T12:32:52.190Z,100396.75
2022-08-17T12:35:25.910Z,100401.63
2022-08-17T12:37:56.041Z,100409.56
2022-08-17T12:40:28.433Z,100405.84
2022-08-17T12:43:03.852Z,100401.63
2022-08-17T12:45:34.585Z,100408.69
2022-08-17T12:48:06.841Z,100404.06
2022-08-17T12:50:46.776Z,100413.41
2022-08-17T12:53:24.409Z,100404.34
2022-08-17T12:55:52.569Z,100405.28
2022-08-17T12:58:36.083Z,100409.00
2022-08-17T13:01:09.581Z,100408.19
2022-08-17T13:03:41.362Z,100416.47
2022-08-17T13:06:18.151Z,100418.44
2022-08-17T13:08:48.559Z,100418.63
2022-08-17T13:11:16.938Z,100415.88
2022-08-17T13:13:52.456Z,100415.88
2022-08-17T13:16:21.874Z,100410.06
2022-08-17T13:19:05.225Z,100420.72
2022-08-17T13:21:34.103Z,100417.78
2022-08-17T13:24:01.483Z,100431.19
2022-08-17T13:26:33.745Z,100430.91
2022-08-17T13:29:08.135Z,100431.22
2022-08-17T13:31:51.174Z,100433.59
2022-08-17T13:35:11.954Z,100435.06
2022-08-17T13:37:37.966Z,100438.09
2022-08-17T13:40:08.651Z,100443.59
2022-08-17T13:42:51.583Z,100443.25
2022-08-17T13:45:35.176Z,100439.88
2022-08-17T13:48:16.171Z,100441.03
2022-08-17T13:50:57.784Z,100442.94
2022-08-17T13:53:33.061Z,100449.72
2022-08-17T13:56:37.605Z,100450.03
2022-08-17T13:59:17.493Z,100453.72
2022-08-17T14:02:10.699Z,100463.41
2022-08-17T14:04:43.719Z,100456.66
2022-08-17T14:07:15.695Z,100459.72
2022-08-17T14:10:26.823Z,100458.09
2022-08-17T14:12:57.908Z,100462.78
2022-08-17T14:15:55.602Z,100460.84
2022-08-17T14:18:31.231Z,100456.19
2022-08-17T14:21:10.060Z,100459.72
2022-08-17T14:23:37.903Z,100469.88
2022-08-17T14:26:05.716Z,100479.38
2022-08-17T14:28:33.972Z,100461.78
2022-08-17T14:31:06.809Z,100466.31
2022-08-17T14:33:35.535Z,100460.19
2022-08-17T14:36:03.697Z,100466.94
2022-08-17T14:38:31.114Z,100475.94
2022-08-17T14:40:59.711Z,100468.47
2022-08-17T14:43:29.998Z,100465.09
2022-08-17T14:45:57.284Z,100464.13
2022-08-17T14:48:24.392Z,100454.47
2022-08-17T14:50:54.724Z,100457.53
2022-08-17T14:53:22.483Z,100444.16
2022-08-17T14:55:51.514Z,100448.38
2022-08-17T14:58:19.673Z,100450.13
2022-08-17T15:00:51.229Z,100437.41
2022-08-17T15:03:23.046Z,100442.47
2022-08-17T15:05:50.342Z,100439.72
2022-08-17T15:08:18.247Z,100441.44
2022-08-17T15:10:54.527Z,100439.06
2022-08-17T15:13:24.373Z,100441.72
2022-08-17T15:15:54.711Z,100436.91
2022-08-17T15:18:22.926Z,100427.44
2022-08-17T15:20:50.703Z,100438.75
2022-08-17T15:23:23.153Z,100433.47
2022-08-17T15:25:52.954Z,100440.72
2022-08-17T15:28:28.705Z,100449.13
2022-08-17T15:30:56.312Z,100464.28
2022-08-17T15:33:29.936Z,100454.16
2022-08-17T15:36:03.503Z,100473.28
2022-08-17T15:38:40.949Z,100479.38
2022-08-17T15:41:15.520Z,100471.75
2022-08-17T15:43:46.229Z,100484.13
2022-08-17T15:46:20.055Z,100497.88
2022-08-17T15:48:52.063Z,100507.19
2022-08-17T15:51:33.240Z,100513.91
2022-08-17T15:54:19.267Z,100515.81
2022-08-17T15:56:51.144Z,100509.47
2022-08-17T15:59:19.717Z,100508.72
2022-08-17T16:03:13.586Z,100494.91
2022-08-17T16:04:41.447Z,100511.16
2022-08-17T16:07:11.702Z,100505.53
2022-08-17T16:09:39.168Z,100515.06
2022-08-17T16:12:18.293Z,100525.97
2022-08-17T16:14:52.041Z,100520.66
2022-08-17T16:17:38.953Z,100520.09
2022-08-17T16:20:20.170Z,100509.66
2022-08-17T16:22:51.977Z,100505.59
2022-08-17T16:25:50.376Z,100502.25
2022-08-17T16:28:19.112Z,100497.38
2022-08-17T16:30:47.260Z,100496.88
2022-08-17T16:33:15.595Z,100513.34
2022-08-17T16:35:43.337Z,100514.16
2022-08-17T16:38:17.922Z,100513.38
2022-08-17T16:40:45.713Z,100510.13
2022-08-17T16:43:13.081Z,100504.47
2022-08-17T16:45:40.959Z,100492.41
2022-08-17T16:48:09.536Z,100493.69
2022-08-17T16:50:37.710Z,100500.16
2022-08-17T16:53:11.308Z,100495.63
2022-08-17T16:55:39.093Z,100501.00
2022-08-17T16:58:09.214Z,100505.56
2022-08-17T17:00:37.812Z,100515.78
2022-08-17T17:03:22.645Z,100532.41
2022-08-17T17:06:07.721Z,100539.66
2022-08-17T17:08:47.041Z,100540.84
2022-08-17T17:11:26.991Z,100551.19
2022-08-17T17:14:00.273Z,100554.56
2022-08-17T17:16:52.270Z,100555.31
2022-08-17T17:19:34.547Z,100566.72
2022-08-17T17:22:15.574Z,100574.88
2022-08-17T17:25:06.322Z,100567.25
2022-08-17T17:27:44.177Z,100572.03
2022-08-17T17:30:26.407Z,100569.25
2022-08-17T17:33:02.115Z,100555.38
2022-08-17T17:36:01.330Z,100560.84
2022-08-17T17:38:44.970Z,100563.78
2022-08-17T17:41:26.153Z,100550.19
2022-08-17T17:44:05.933Z,100544.22
2022-08-17T17:46:40.556Z,100550.25
2022-08-17T17:49:11.613Z,100542.16
2022-08-17T17:52:22.175Z,100543.34
2022-08-17T17:54:53.898Z,100533.69
2022-08-17T17:58:03.650Z,100542.44
2022-08-17T18:01:16.445Z,100553.56
2022-08-17T18:03:55.467Z,100578.13
2022-08-17T18:06:51.813Z,100583.94
2022-08-17T18:09:51.748Z,100603.44
2022-08-17T18:12:24.817Z,100631.81
2022-08-17T18:15:12.444Z,100637.81
2022-08-17T18:18:22.924Z,100629.28
2022-08-17T18:20:56.291Z,100634.75
2022-08-17T18:23:33.540Z,100654.41
2022-08-17T18:26:05.195Z,100663.06
2022-08-17T18:28:40.986Z,100693.06
2022-08-17T18:31:11.983Z,100686.84
2022-08-17T18:33:45.973Z,100656.63
2022-08-17T18:36:34.981Z,100654.09
2022-08-17T18:39:31.672Z,100656.53
2022-08-17T18:42:26.060Z,100660.09
2022-08-17T18:44:57.154Z,100653.00
2022-08-17T18:47:28.618Z,100663.59
2022-08-17T18:51:12.424Z,100687.53
2022-08-17T18:53:46.059Z,100675.00
2022-08-17T18:56:32.505Z,100681.50
2022-08-17T18:59:21.965Z,100684.00
2022-08-17T19:02:45.049Z,100664.69
2022-08-17T19:05:39.246Z,100654.13
2022-08-17T19:08:21.983Z,100648.13
2022-08-17T19:11:02.239Z,100629.13
2022-08-17T19:13:44.659Z,100622.03
2022-08-17T19:16:38.319Z,100639.47
2022-08-17T19:19:24.190Z,100637.53
2022-08-17T19:22:03.380Z,100647.88
2022-08-17T19:24:33.980Z,100656.00
2022-08-17T19:27:57.363Z,100649.75
2022-08-17T19:30:26.307Z,100656.00
2022-08-17T19:32:56.266Z,100669.03
2022-08-17T19:35:32.664Z,100663.06
2022-08-17T19:38:15.227Z,100645.94
2022-08-17T19:41:10.320Z,100630.72
2022-08-17T19:43:58.977Z,100636.69
2022-08-17T19:46:49.944Z,100661.72
2022-08-17T19:49:32.930Z,100676.41
2022-08-17T19:52:10.747Z,100693.25
2022-08-17T19:55:05.553Z,100717.47
2022-08-17T19:58:12.072Z,100706.31
2022-08-17T20:00:52.790Z,100715.00
2022-08-17T20:03:35.395Z,100728.06
2022-08-17T20:06:12.899Z,100742.44
2022-08-17T20:09:15.156Z,100732.13
2022-08-17T20:11:52.787Z,100757.13
2022-08-17T20:14:24.694Z,100788.91
2022-08-17T20:16:52.924Z,100828.63
2022-08-17T20:19:25.510Z,100843.56
2022-08-17T20:22:00.258Z,100847.63
2022-08-17T20:24:37.668Z,100850.78
2022-08-17T20:27:31.365Z,100831.16
2022-08-17T20:30:12.178Z,100798.28
2022-08-17T20:32:58.203Z,100792.81
2022-08-17T20:35:39.996Z,100803.16
2022-08-17T20:38:48.081Z,100801.22
2022-08-17T20:41:23.021Z,100805.06
2022-08-17T20:44:08.509Z,100811.34
2022-08-17T20:46:39.156Z,100793.34
2022-08-17T20:49:26.258Z,100805.25
2022-08-17T20:52:10.620Z,100815.72
2022-08-17T20:54:49.508Z,100808.69
2022-08-17T20:57:35.560Z,100780.72
2022-08-17T21:00:33.335Z,100766.31
2022-08-17T21:03:23.262Z,100780.22
2022-08-17T21:06:16.829Z,100762.75
2022-08-17T21:08:55.328Z,100757.06
2022-08-17T21:11:57.320Z,100752.19
2022-08-17T21:14:33.004Z,100744.88
2022-08-17T21:17:33.884Z,100745.97
2022-08-17T21:20:27.339Z,100749.78
2022-08-17T21:23:39.231Z,100739.72
2022-08-17T21:26:30.216Z,100748.16
2022-08-17T21:29:31.967Z,100757.41
2022-08-17T21:32:03.422Z,100769.84
2022-08-17T21:34:44.271Z,100774.47
2022-08-17T21:37:22.175Z,100777.47
2022-08-17T21:40:11.114Z,100770.94
2022-08-17T21:42:51.392Z,100773.94
2022-08-17T21:45:35.981Z,100762.81
2022-08-17T21:48:13.395Z,100758.94
2022-08-17T21:50:44.539Z,100764.34
2022-08-17T21:54:13.634Z,100768.13
2022-08-17T21:56:46.785Z,100773.53
2022-08-17T21:59:20.443Z,100764.84
2022-08-17T22:01:58.880Z,100756.72
2022-08-17T22:04:33.590Z,100762.59
2022-08-17T22:07:04.630Z,100758.25
2022-08-17T22:09:44.752Z,100747.59
2022-08-17T22:12:27.485Z,100757.81
2022-08-17T22:14:58.444Z,100773.72
2022-08-17T22:17:50.018Z,100780.00
2022-08-17T22:20:38.687Z,100792.88
2022-08-17T22:23:32.643Z,100807.50
2022-08-17T22:26:04.403Z,100801.50
2022-08-17T22:28:49.307Z,100805.59
2022-08-17T22:31:24.214Z,100815.06
2022-08-17T22:34:03.932Z,100803.28
2022-08-17T22:36:36.806Z,100809.00
2022-08-17T22:39:11.898Z,100812.47
2022-08-17T22:42:03.886Z,100821.44
2022-08-17T22:44:38.373Z,100828.03
2022-08-17T22:47:24.451Z,100840.63
2022-08-17T22:50:02.831Z,100838.53
2022-08-17T22:53:02.903Z,100841.22
2022-08-17T22:55:53.297Z,100841.53
2022-08-17T22:58:43.543Z,100846.75
2022-08-17T23:01:33.580Z,100855.97
2022-08-17T23:04:07.274Z,100869.50
2022-08-17T23:06:42.940Z,100886.19
2022-08-17T23:09:10.995Z,100885.84
2022-08-17T23:11:49.795Z,100878.66
2022-08-17T23:14:20.802Z,100888.47
2022-08-17T23:16:53.475Z,100900.56
2022-08-17T23:19:22.558Z,100916.75
2022-08-17T23:21:55.866Z,100941.56
2022-08-17T23:24:26.708Z,100964.16
2022-08-17T23:26:59.382Z,100967.97
2022-08-17T23:29:30.257Z,100950.72
2022-08-17T23:32:05.227Z,100952.28
2022-08-17T23:34:37.162Z,100938.31
2022-08-17T23:37:10.687Z,100939.91
2022-08-17T23:39:43.145Z,100935.47
2022-08-17T23:42:14.451Z,100947.59
2022-08-17T23:44:44.092Z,100929.69
2022-08-17T23:47:11.853Z,100915.16
2022-08-17T23:49:43.681Z,100913.81
2022-08-17T23:52:16.425Z,100916.06
2022-08-17T23:54:47.489Z,100901.63
2022-08-17T23:57:19.514Z,100893.69
2022-08-17T23:59:47.744Z,100900.56
